Time;durP1;ratioP1;P1;durP2;ratioP2;P2;SDS_P1;SDS_P2;PMS_P1;PMS_P2;Temp;Humidity;BMP_temperature;BMP_pressure;BME280_temperature;BME280_humidity;BME280_pressure;Samples;Min_cycle;Max_cycle;Signal;HPM_P1;HPM_P2
2022/08/19 00:00:50;;;;;;;13.87;12.47;;;;;;;21.06;81.90;97705.91;4941188;29;20307;-66
2022/08/19 00:03:17;;;;;;;13.93;12.43;;;;;;;21.08;81.79;97704.72;4941045;29;20228;-65
2022/08/19 00:05:43;;;;;;;14.07;12.57;;;;;;;21.08;81.71;97693.97;4941340;29;20271;-66
2022/08/19 00:08:12;;;;;;;14.30;12.20;;;;;;;21.08;81.99;97693.16;4939497;29;20289;-66
2022/08/19 00:10:38;;;;;;;15.17;13.57;;;;;;;21.11;81.44;97680.19;4941223;29;20579;-66
2022/08/19 00:13:05;;;;;;;14.13;12.63;;;;;;;21.11;81.42;97682.88;4941140;29;20232;-66
2022/08/19 00:15:32;;;;;;;13.20;11.90;;;;;;;21.07;81.52;97692.31;4941161;29;20260;-66
2022/08/19 00:17:58;;;;;;;14.03;12.53;;;;;;;21.06;81.63;97697.84;4940996;29;20231;-65
2022/08/19 00:20:25;;;;;;;14.33;12.83;;;;;;;21.09;81.57;97698.34;4940115;29;20252;-66
2022/08/19 00:22:52;;;;;;;13.90;12.50;;;;;;;21.13;80.87;97712.25;4941076;29;20232;-66
2022/08/19 00:25:20;;;;;;;13.53;11.33;;;;;;;21.11;81.18;97701.69;4940961;29;20592;-66
2022/08/19 00:27:47;;;;;;;14.77;13.20;;;;;;;21.14;80.62;97698.63;4940912;29;20232;-66
2022/08/19 00:30:14;;;;;;;13.20;11.80;;;;;;;21.10;81.08;97697.31;4940757;29;20283;-65
2022/08/19 00:32:41;;;;;;;13.20;11.77;;;;;;;21.13;80.59;97691.59;4940841;29;20287;-66
2022/08/19 00:35:09;;;;;;;13.00;11.70;;;;;;;21.10;80.61;97691.94;4939133;29;20239;-65
2022/08/19 00:37:36;;;;;;;15.00;12.83;;;;;;;21.08;80.78;97682.41;4940691;29;20231;-65
2022/08/19 00:40:05;;;;;;;13.53;12.00;;;;;;;21.07;81.00;97669.97;4940554;29;20589;-65
2022/08/19 00:42:33;;;;;;;14.30;11.87;;;;;;;21.04;80.87;97664.97;4940588;29;20239;-66
2022/08/19 00:45:00;;;;;;;13.90;12.23;;;;;;;21.06;80.96;97658.41;4940422;29;20646;-67
2022/08/19 00:47:27;;;;;;;13.53;12.10;;;;;;;21.07;80.59;97657.38;4940407;29;20228;-65
2022/08/19 00:49:57;;;;;;;13.80;12.27;;;;;;;21.06;80.78;97669.16;4940355;29;20287;-65
2022/08/19 00:52:29;;;;;;;12.70;11.40;;;;;;;21.08;80.75;97677.84;4940318;29;20233;-65
2022/08/19 00:54:58;;;;;;;12.10;10.90;;;;;;;21.09;80.65;97684.06;4940466;29;20399;-66
2022/08/19 00:57:31;;;;;;;12.80;11.43;;;;;;;21.02;81.15;97683.13;4940304;29;20287;-66
2022/08/19 01:00:01;;;;;;;13.50;12.10;;;;;;;21.05;80.67;97688.97;4926433;29;20235;-65
2022/08/19 01:02:29;;;;;;;13.30;11.90;;;;;;;21.04;81.04;97691.84;4940375;29;20359;-65
2022/08/19 01:04:56;;;;;;;14.20;12.40;;;;;;;21.06;81.02;97685.28;4940156;29;20282;-65
2022/08/19 01:07:23;;;;;;;13.37;12.00;;;;;;;21.06;81.17;97690.66;4940031;29;20622;-65
2022/08/19 01:09:50;;;;;;;12.93;11.30;;;;;;;21.12;80.94;97689.06;4940074;29;20264;-65
2022/08/19 01:12:17;;;;;;;13.93;11.97;;;;;;;21.09;81.13;97684.91;4939970;29;20257;-66
2022/08/19 01:14:45;;;;;;;14.27;12.37;;;;;;;21.14;80.94;97687.88;4939349;29;20286;-65
2022/08/19 01:17:14;;;;;;;15.00;12.87;;;;;;;21.05;81.19;97686.28;4939940;29;20640;-66
2022/08/19 01:19:43;;;;;;;14.57;12.63;;;;;;;21.01;81.49;97682.28;4934102;29;20231;-65
2022/08/19 01:22:16;;;;;;;14.97;12.57;;;;;;;21.02;81.25;97678.59;4939893;29;20339;-66
2022/08/19 01:24:44;;;;;;;14.93;12.00;;;;;;;21.07;81.14;97678.88;4939870;29;20297;-65
2022/08/19 01:27:10;;;;;;;14.50;12.53;;;;;;;20.99;81.31;97676.28;4938251;29;20338;-66
2022/08/19 01:29:40;;;;;;;14.43;12.93;;;;;;;21.04;81.35;97681.09;4939879;29;20705;-65
2022/08/19 01:32:08;;;;;;;16.40;13.20;;;;;;;21.00;81.48;97680.63;4939801;29;20630;-66
2022/08/19 01:34:34;;;;;;;13.13;11.73;;;;;;;20.97;81.74;97674.78;4939872;29;20287;-66
2022/08/19 01:37:07;;;;;;;15.47;13.20;;;;;;;20.95;81.96;97672.28;4939648;29;20234;-66
2022/08/19 01:39:35;;;;;;;15.27;12.87;;;;;;;20.91;82.22;97670.13;4939794;29;20575;-66
2022/08/19 01:42:04;;;;;;;13.97;12.47;;;;;;;20.93;82.38;97673.47;4939926;29;20608;-66
2022/08/19 01:44:31;;;;;;;15.63;12.93;;;;;;;20.94;82.18;97680.50;4939538;29;20639;-66
2022/08/19 01:46:57;;;;;;;14.83;13.20;;;;;;;20.83;82.89;97679.06;4939780;29;20283;-67
2022/08/19 01:49:26;;;;;;;15.33;13.23;;;;;;;20.76;83.18;97678.09;4939534;29;20278;-66
2022/08/19 01:51:54;;;;;;;15.00;12.90;;;;;;;20.75;83.63;97676.44;4938016;29;20291;-66
2022/08/19 01:54:23;;;;;;;15.13;13.07;;;;;;;20.71;83.84;97669.75;4939907;29;20516;-67
2022/08/19 01:56:50;;;;;;;17.77;14.33;;;;;;;20.74;83.84;97668.56;4939558;29;20303;-66
2022/08/19 01:59:22;;;;;;;15.07;13.13;;;;;;;20.75;83.57;97680.97;4939438;29;20232;-66
2022/08/19 02:01:49;;;;;;;15.87;13.40;;;;;;;20.78;83.48;97673.38;4939445;29;20249;-66
2022/08/19 02:04:15;;;;;;;16.90;14.03;;;;;;;20.76;83.77;97680.78;4939428;29;20318;-66
2022/08/19 02:06:42;;;;;;;15.13;13.53;;;;;;;20.75;83.62;97681.81;4939307;29;20228;-66
2022/08/19 02:09:10;;;;;;;15.00;13.40;;;;;;;20.71;84.34;97685.88;4939329;29;20583;-66
2022/08/19 02:11:38;;;;;;;15.93;13.00;;;;;;;20.72;84.39;97690.22;4939326;29;20231;-66
2022/08/19 02:14:07;;;;;;;16.43;13.70;;;;;;;20.71;84.38;97691.25;4939253;29;20251;-66
2022/08/19 02:16:36;;;;;;;14.73;13.13;;;;;;;20.72;84.46;97682.16;4939375;29;20228;-66
2022/08/19 02:19:04;;;;;;;14.27;12.77;;;;;;;20.69;84.54;97677.16;4936663;29;20228;-66
2022/08/19 02:21:31;;;;;;;16.63;14.50;;;;;;;20.67;84.99;97684.53;4939087;29;20248;-65
2022/08/19 02:23:59;;;;;;;17.17;14.93;;;;;;;20.65;85.21;97691.09;4939285;29;20287;-66
2022/08/19 02:26:26;;;;;;;16.73;13.70;;;;;;;20.58;85.38;97687.47;4929257;29;20275;-65
2022/08/19 02:28:54;;;;;;;18.53;14.97;;;;;;;20.51;85.94;97690.06;4943223;29;20274;-65
2022/08/19 02:31:24;;;;;;;18.13;14.67;;;;;;;20.55;85.91;97675.22;4943041;29;20231;-65
2022/08/19 02:33:52;;;;;;;18.37;14.63;;;;;;;20.50;86.36;97688.38;4942956;29;20239;-65
2022/08/19 02:36:19;;;;;;;16.47;14.47;;;;;;;20.46;86.76;97692.44;4943124;29;20232;-65
2022/08/19 02:38:45;;;;;;;18.53;14.73;;;;;;;20.41;86.96;97684.06;4942941;29;20259;-66
2022/08/19 02:41:14;;;;;;;18.40;15.77;;;;;;;20.32;87.68;97690.50;4942747;29;20657;-66
2022/08/19 02:43:41;;;;;;;17.63;15.00;;;;;;;20.32;87.74;97685.16;4940865;29;20224;-65
2022/08/19 02:46:20;;;;;;;20.37;16.33;;;;;;;20.31;87.81;97674.56;4942848;29;20635;-65
2022/08/19 02:48:48;;;;;;;18.70;15.50;;;;;;;20.24;88.32;97687.84;4942680;29;20313;-65
2022/08/19 02:51:22;;;;;;;21.77;17.27;;;;;;;20.24;88.36;97687.84;4942541;29;20255;-65
2022/08/19 02:53:49;;;;;;;18.03;15.23;;;;;;;20.28;88.01;97680.28;4942671;29;20287;-66
2022/08/19 02:56:16;;;;;;;20.07;16.37;;;;;;;20.29;87.88;97685.47;4942577;29;20294;-66
2022/08/19 02:58:43;;;;;;;20.53;16.47;;;;;;;20.32;87.84;97679.78;4942540;29;20270;-65
2022/08/19 03:01:12;;;;;;;19.03;15.97;;;;;;;20.27;88.06;97670.56;4942376;29;20315;-66
2022/08/19 03:03:39;;;;;;;21.47;17.37;;;;;;;20.28;88.24;97667.72;4942454;29;20354;-65
2022/08/19 03:06:09;;;;;;;22.00;17.37;;;;;;;20.14;89.01;97670.31;4942578;29;20512;-65
2022/08/19 03:08:38;;;;;;;23.63;18.33;;;;;;;20.04;90.30;97665.13;4942301;29;20333;-67
2022/08/19 03:11:05;;;;;;;19.07;15.97;;;;;;;19.91;91.55;97672.91;4940699;29;20270;-65
2022/08/19 03:13:32;;;;;;;20.13;16.83;;;;;;;19.82;92.40;97671.28;4941988;29;20236;-65
2022/08/19 03:15:58;;;;;;;21.60;18.53;;;;;;;19.76;93.07;97682.69;4942223;29;20284;-66
2022/08/19 03:18:25;;;;;;;21.97;17.50;;;;;;;19.77;92.66;97681.72;4941992;29;20232;-66
2022/08/19 03:20:54;;;;;;;20.00;16.90;;;;;;;19.75;92.99;97681.03;4939392;29;20260;-66
2022/08/19 03:23:21;;;;;;;19.73;16.77;;;;;;;19.82;92.52;97687.34;4942060;29;20311;-66
2022/08/19 03:25:50;;;;;;;20.80;17.03;;;;;;;19.94;91.52;97693.19;4941991;29;20235;-65
2022/08/19 03:28:17;;;;;;;21.23;17.30;;;;;;;19.97;91.22;97693.69;4942113;29;20236;-67
2022/08/19 03:30:56;;;;;;;23.23;17.57;;;;;;;20.04;90.34;97691.97;4942015;29;20296;-66
2022/08/19 03:33:24;;;;;;;22.03;17.73;;;;;;;20.06;90.17;97689.16;4929901;29;20244;-67
2022/08/19 03:36:01;;;;;;;22.73;18.00;;;;;;;20.06;89.88;97684.59;4940133;29;20232;-66
2022/08/19 03:38:27;;;;;;;20.43;17.97;;;;;;;20.06;89.54;97684.59;4940899;29;20228;-65
2022/08/19 03:40:56;;;;;;;20.93;17.53;;;;;;;20.05;89.88;97682.09;4941765;29;20518;-66
2022/08/19 03:43:22;;;;;;;23.73;18.97;;;;;;;20.03;89.95;97690.31;4941792;29;20228;-66
2022/08/19 03:45:50;;;;;;;20.37;16.70;;;;;;;19.96;90.37;97700.06;4941672;29;20239;-66
2022/08/19 03:48:17;;;;;;;22.27;18.00;;;;;;;19.98;90.13;97692.66;4941553;29;20242;-66
2022/08/19 03:50:44;;;;;;;23.37;19.17;;;;;;;20.02;89.92;97694.00;4941609;29;20534;-66
2022/08/19 03:53:11;;;;;;;22.17;18.23;;;;;;;20.03;89.35;97689.44;4941550;29;20228;-65
2022/08/19 03:55:40;;;;;;;23.77;19.67;;;;;;;20.08;89.39;97682.59;4941529;29;20232;-66
2022/08/19 03:58:10;;;;;;;24.23;20.03;;;;;;;20.03;89.52;97684.09;4941530;29;20576;-66
2022/08/19 04:00:37;;;;;;;21.40;18.87;;;;;;;19.96;89.97;97683.97;4941494;29;20604;-66
2022/08/19 04:03:04;;;;;;;22.87;18.60;;;;;;;19.91;90.30;97697.06;4939710;29;20303;-66
2022/08/19 04:05:31;;;;;;;20.33;18.13;;;;;;;19.91;90.18;97691.69;4941261;29;20307;-66
2022/08/19 04:07:58;;;;;;;20.13;17.17;;;;;;;19.88;90.54;97692.03;4941369;29;20319;-66
2022/08/19 04:10:25;;;;;;;20.43;17.63;;;;;;;19.92;90.27;97698.72;4941208;29;20235;-67
2022/08/19 04:12:52;;;;;;;22.77;18.70;;;;;;;19.90;90.34;97706.13;4941245;29;20589;-65
2022/08/19 04:15:20;;;;;;;22.13;18.83;;;;;;;19.90;90.49;97698.06;4941083;29;20296;-65
2022/08/19 04:17:47;;;;;;;21.43;18.33;;;;;;;19.88;90.67;97689.34;4941004;29;20224;-66
2022/08/19 04:20:14;;;;;;;23.20;19.13;;;;;;;19.79;91.15;97692.25;4940503;29;20231;-66
2022/08/19 04:22:40;;;;;;;22.40;18.30;;;;;;;19.80;91.21;97691.25;4940980;29;20247;-66
2022/08/19 04:25:08;;;;;;;22.77;19.43;;;;;;;19.78;91.03;97691.41;4940978;29;20279;-66
2022/08/19 04:27:34;;;;;;;23.67;18.93;;;;;;;19.82;91.08;97695.41;4939136;29;20231;-67
2022/08/19 04:30:01;;;;;;;23.33;19.77;;;;;;;19.85;90.83;97697.75;4941124;29;20547;-67
2022/08/19 04:32:31;;;;;;;22.87;19.93;;;;;;;19.86;90.97;97691.38;4940938;29;20284;-67
2022/08/19 04:34:58;;;;;;;21.20;17.93;;;;;;;19.89;90.55;97688.38;4940880;29;20228;-67
2022/08/19 04:37:26;;;;;;;24.03;19.87;;;;;;;19.85;90.98;97688.88;4940746;29;20236;-67
2022/08/19 04:42:40;;;;;;;21.93;19.13;;;;;;;19.80;91.26;97684.03;4940773;29;20283;-66
2022/08/19 04:45:09;;;;;;;22.63;19.43;;;;;;;19.83;90.95;97688.22;4940580;29;20228;-66
2022/08/19 04:47:38;;;;;;;22.27;19.67;;;;;;;19.84;91.01;97690.72;4940391;29;20334;-66
2022/08/19 04:50:06;;;;;;;23.13;19.57;;;;;;;19.81;91.22;97701.78;4939643;29;20266;-65
2022/08/19 04:52:33;;;;;;;24.63;20.57;;;;;;;19.80;91.34;97688.56;4940642;29;20267;-65
2022/08/19 04:54:59;;;;;;;24.20;19.37;;;;;;;19.82;90.96;97700.78;4938962;29;20227;-65
2022/08/19 04:57:27;;;;;;;25.03;20.57;;;;;;;19.84;90.84;97700.59;4940505;29;20588;-65
2022/08/19 04:59:55;;;;;;;21.70;19.00;;;;;;;19.80;91.13;97694.75;4940363;29;20231;-65
2022/08/19 05:02:22;;;;;;;27.20;21.80;;;;;;;19.86;90.84;97703.94;4940282;29;20259;-65
2022/08/19 05:04:51;;;;;;;23.73;19.83;;;;;;;19.85;91.26;97705.81;4940438;29;20231;-65
2022/08/19 05:07:17;;;;;;;24.27;21.30;;;;;;;19.89;90.86;97703.59;4940127;29;20279;-65
2022/08/19 05:09:44;;;;;;;26.37;21.27;;;;;;;19.88;90.90;97708.13;4940312;29;20234;-66
2022/08/19 05:12:11;;;;;;;22.97;19.77;;;;;;;19.95;90.42;97706.44;4940295;29;20231;-65
2022/08/19 05:14:37;;;;;;;23.80;19.77;;;;;;;19.95;90.26;97713.63;4940168;29;20287;-65
2022/08/19 05:17:04;;;;;;;23.27;19.47;;;;;;;19.89;90.78;97720.56;4940323;29;20228;-65
2022/08/19 05:22:35;;;;;;;26.20;20.67;;;;;;;20.00;90.09;97730.06;4940100;29;20533;-65
2022/08/19 05:25:05;;;;;;;22.77;19.07;;;;;;;19.97;90.28;97738.44;4937422;29;20318;-65
2022/08/19 05:27:32;;;;;;;22.40;19.73;;;;;;;19.94;90.35;97744.97;4939998;29;20279;-66
2022/08/19 05:29:59;;;;;;;24.30;19.70;;;;;;;19.98;90.32;97751.69;4939913;29;20638;-66
2022/08/19 05:32:28;;;;;;;26.57;21.03;;;;;;;20.05;89.67;97763.38;4939908;29;20279;-65
2022/08/19 05:34:55;;;;;;;25.70;20.57;;;;;;;20.05;90.00;97767.94;4937582;29;20275;-66
2022/08/19 05:37:26;;;;;;;21.53;19.23;;;;;;;20.04;89.84;97777.81;4939695;29;20287;-65
2022/08/19 05:39:54;;;;;;;23.73;19.83;;;;;;;20.14;89.75;97777.66;4939733;29;20232;-65
2022/08/19 05:42:22;;;;;;;26.03;21.30;;;;;;;20.13;89.49;97784.88;4939049;29;20252;-65
2022/08/19 05:44:50;;;;;;;22.40;18.77;;;;;;;20.15;89.36;97798.09;4935293;29;20541;-66
2022/08/19 05:47:19;;;;;;;23.67;20.53;;;;;;;20.15;89.34;97798.09;4935500;29;20238;-67
2022/08/19 05:49:46;;;;;;;24.03;19.67;;;;;;;20.19;89.17;97796.75;4937059;29;20240;-68
2022/08/19 05:52:16;;;;;;;21.10;18.37;;;;;;;20.19;89.29;97794.88;4936233;29;20227;-68
2022/08/19 05:54:47;;;;;;;22.73;18.47;;;;;;;20.19;89.35;97792.19;4935778;29;20287;-67
2022/08/19 05:57:14;;;;;;;27.57;21.93;;;;;;;20.15;89.25;97782.00;4936778;29;20542;-66
2022/08/19 05:59:41;;;;;;;28.40;20.23;;;;;;;20.20;89.10;97776.94;4936626;29;20231;-66
2022/08/19 06:02:08;;;;;;;24.03;20.27;;;;;;;20.17;89.16;97793.41;4935093;29;20693;-66
2022/08/19 06:04:35;;;;;;;31.43;21.53;;;;;;;20.12;89.65;97795.78;4935746;29;20280;-65
2022/08/19 06:07:02;;;;;;;23.30;19.73;;;;;;;20.08;89.58;97789.91;4939048;29;20612;-65
2022/08/19 06:09:29;;;;;;;23.70;20.00;;;;;;;20.12;89.71;97788.53;4939222;29;20311;-66
2022/08/19 06:11:59;;;;;;;24.20;20.50;;;;;;;20.12;89.59;97785.84;4937393;29;20533;-65
2022/08/19 06:14:29;;;;;;;30.47;21.63;;;;;;;20.18;89.17;97787.84;4939387;29;20247;-64
2022/08/19 06:16:56;;;;;;;20.93;18.70;;;;;;;20.19;89.03;97792.19;4939307;29;20291;-65
2022/08/19 06:19:25;;;;;;;21.30;18.97;;;;;;;20.26;88.88;97787.84;4939159;29;20223;-66
2022/08/19 06:21:53;;;;;;;23.63;20.23;;;;;;;20.28;88.62;97784.94;4939169;29;20249;-66
2022/08/19 06:24:23;;;;;;;23.33;19.83;;;;;;;20.33;88.11;97783.44;4939137;29;20290;-66
2022/08/19 06:26:50;;;;;;;27.83;21.73;;;;;;;20.33;87.82;97778.06;4939497;29;20240;-66
2022/08/19 06:29:20;;;;;;;22.30;19.10;;;;;;;20.29;88.43;97781.28;4939369;29;20232;-66
2022/08/19 06:31:50;;;;;;;21.77;19.40;;;;;;;20.30;88.23;97783.78;4939390;29;20568;-70
2022/08/19 06:34:17;;;;;;;21.17;18.17;;;;;;;20.32;88.45;97792.50;4939038;29;20307;-66
2022/08/19 06:36:46;;;;;;;22.23;19.53;;;;;;;20.15;89.52;97795.41;4939300;29;20236;-66
2022/08/19 06:39:15;;;;;;;22.10;19.23;;;;;;;19.88;92.92;97788.59;4937421;29;20270;-66
2022/08/19 06:41:44;;;;;;;27.53;21.10;;;;;;;19.65;95.32;97793.03;4938931;29;20290;-66
2022/08/19 06:44:12;;;;;;;25.27;21.40;;;;;;;19.58;95.71;97801.91;4938941;29;20224;-66
2022/08/19 06:46:42;;;;;;;26.03;20.03;;;;;;;19.35;98.33;97804.44;4939138;29;20686;-67
2022/08/19 06:49:10;;;;;;;25.47;21.00;;;;;;;19.26;100.00;97802.75;4939090;29;20290;-66
2022/08/19 06:51:36;;;;;;;26.20;21.77;;;;;;;19.28;99.37;97800.78;4936857;29;20254;-65
2022/08/19 06:54:03;;;;;;;25.80;21.57;;;;;;;19.16;100.00;97799.41;4938938;29;20264;-68
2022/08/19 06:56:34;;;;;;;25.23;20.40;;;;;;;19.18;100.00;97797.38;4938957;29;20229;-67
2022/08/19 06:59:01;;;;;;;26.73;22.17;;;;;;;19.27;100.00;97803.63;4938943;29;20235;-65
2022/08/19 07:01:27;;;;;;;26.57;21.80;;;;;;;19.31;99.91;97800.41;4938948;29;20232;-67
2022/08/19 07:03:56;;;;;;;22.37;18.80;;;;;;;19.46;99.06;97798.75;4937159;29;20351;-66
2022/08/19 07:06:22;;;;;;;24.17;20.13;;;;;;;19.60;98.31;97800.72;4938997;29;20236;-65
2022/08/19 07:08:50;;;;;;;22.80;19.23;;;;;;;19.77;96.66;97801.53;4938940;29;20228;-65
2022/08/19 07:11:18;;;;;;;25.80;20.00;;;;;;;19.91;96.44;97804.34;4938596;29;20657;-65
2022/08/19 07:13:48;;;;;;;22.23;18.97;;;;;;;19.99;95.61;97807.00;4941273;29;20286;-65
2022/08/19 07:16:17;;;;;;;21.00;17.90;;;;;;;20.06;94.60;97808.00;4942041;29;20634;-67
2022/08/19 07:18:44;;;;;;;22.10;19.17;;;;;;;20.11;94.08;97810.22;4941535;29;20262;-66
2022/08/19 07:21:18;;;;;;;24.50;20.40;;;;;;;20.11;93.90;97821.75;4940435;29;20238;-66
2022/08/19 07:23:45;;;;;;;21.97;18.97;;;;;;;20.15;93.46;97812.38;4942228;29;20248;-66
2022/08/19 07:26:18;;;;;;;21.60;18.47;;;;;;;20.21;93.94;97811.66;4942083;29;20262;-67
2022/08/19 07:28:46;;;;;;;22.97;19.73;;;;;;;20.22;92.98;97818.72;4940677;29;20234;-65
2022/08/19 07:31:17;;;;;;;20.00;17.70;;;;;;;20.34;91.34;97809.25;4933156;29;20315;-65
2022/08/19 07:33:45;;;;;;;19.27;16.63;;;;;;;20.38;90.91;97813.28;4939853;29;20228;-64
2022/08/19 07:36:16;;;;;;;19.53;16.77;;;;;;;20.43;91.57;97810.88;4933750;29;20311;-65
2022/08/19 07:38:48;;;;;;;19.67;17.53;;;;;;;20.48;91.25;97816.56;4933565;29;20224;-65
2022/08/19 07:41:18;;;;;;;21.23;18.83;;;;;;;20.56;89.85;97813.88;4930015;29;20318;-65
2022/08/19 07:43:45;;;;;;;18.50;16.57;;;;;;;20.52;89.22;97814.38;4931676;29;20760;-66
2022/08/19 07:46:14;;;;;;;22.47;17.67;;;;;;;20.54;89.30;97829.31;4927952;29;20260;-66
2022/08/19 07:48:43;;;;;;;20.43;17.90;;;;;;;20.55;88.39;97825.59;4932350;29;20231;-65
2022/08/19 07:51:12;;;;;;;20.67;17.40;;;;;;;20.47;88.90;97827.50;4932213;29;20231;-65
2022/08/19 07:53:39;;;;;;;21.83;17.60;;;;;;;20.42;89.37;97827.19;4940271;29;20332;-66
2022/08/19 07:56:07;;;;;;;19.07;17.07;;;;;;;20.31;90.18;97820.34;4938714;29;20228;-65
2022/08/19 07:58:37;;;;;;;19.30;16.73;;;;;;;20.20;91.32;97826.09;4940129;29;20239;-66
2022/08/19 08:01:06;;;;;;;18.27;15.90;;;;;;;20.09;92.02;97825.63;4940208;29;20236;-66
2022/08/19 08:09:21;;;;;;;18.33;16.33;;;;;;;20.18;92.22;97828.09;4862545;29;20231;-65
2022/08/19 08:11:51;;;;;;;19.27;16.00;;;;;;;20.27;91.29;97826.22;4924525;29;20237;-65
2022/08/19 08:14:21;;;;;;;19.20;17.13;;;;;;;20.34;90.43;97830.75;4939736;29;20258;-65
2022/08/19 08:16:50;;;;;;;18.23;16.17;;;;;;;20.40;90.14;97832.72;4939812;29;20228;-66
2022/08/19 08:19:18;;;;;;;17.20;15.33;;;;;;;20.49;89.69;97836.22;4929669;29;20304;-65
2022/08/19 08:21:47;;;;;;;19.63;17.20;;;;;;;20.40;90.57;97837.25;4937430;29;20286;-64
2022/08/19 08:24:14;;;;;;;20.10;17.27;;;;;;;19.91;98.62;97847.28;4937478;29;20253;-63
2022/08/19 08:26:42;;;;;;;22.53;17.87;;;;;;;19.41;100.00;97846.66;4939480;29;20232;-64
2022/08/19 08:29:12;;;;;;;22.00;18.03;;;;;;;19.13;100.00;97839.09;4939473;29;20238;-65
2022/08/19 08:31:41;;;;;;;26.77;19.77;;;;;;;19.10;100.00;97840.25;4939314;29;20234;-66
2022/08/19 08:34:08;;;;;;;27.63;21.67;;;;;;;19.06;100.00;97832.69;4939458;29;20276;-65
2022/08/19 08:36:41;;;;;;;25.73;21.00;;;;;;;18.99;100.00;97837.88;4939314;29;20232;-65
2022/08/19 08:39:10;;;;;;;25.50;19.47;;;;;;;18.94;100.00;97834.84;4939466;29;20263;-65
2022/08/19 08:41:46;;;;;;;23.30;19.13;;;;;;;18.82;100.00;97838.84;4937986;29;20236;-66
2022/08/19 08:44:18;;;;;;;25.23;20.40;;;;;;;18.85;100.00;97835.84;4937727;29;20283;-66
2022/08/19 08:46:49;;;;;;;23.20;19.07;;;;;;;18.97;100.00;97826.47;4938747;29;20338;-67
2022/08/19 08:49:40;;;;;;;23.43;18.73;;;;;;;19.33;100.00;97835.09;4938392;29;20239;-66
2022/08/19 08:52:12;;;;;;;22.57;18.70;;;;;;;19.72;100.00;97831.56;4928545;29;20231;-67
2022/08/19 08:54:42;;;;;;;19.93;17.80;;;;;;;20.09;100.00;97834.53;4939119;29;20326;-68
2022/08/19 08:57:15;;;;;;;21.97;17.80;;;;;;;20.43;100.00;97832.38;4938968;29;20611;-67
2022/08/19 08:59:44;;;;;;;19.40;17.30;;;;;;;20.64;100.00;97829.94;4938946;29;20499;-67
2022/08/19 09:02:11;;;;;;;20.97;17.37;;;;;;;20.72;97.54;97827.19;4939022;29;20236;-69
2022/08/19 09:04:39;;;;;;;18.10;16.03;;;;;;;20.77;97.01;97835.56;4938781;29;20248;-69
2022/08/19 09:07:31;;;;;;;18.47;16.13;;;;;;;20.87;95.43;97836.19;4938900;29;20238;-69
2022/08/19 09:10:06;;;;;;;19.93;16.23;;;;;;;20.88;95.23;97840.56;4928864;29;20298;-69
2022/08/19 09:12:40;;;;;;;18.10;15.20;;;;;;;20.93;94.60;97840.03;4938597;29;20570;-69
2022/08/19 09:15:10;;;;;;;18.47;16.50;;;;;;;20.97;94.39;97844.88;4938739;29;20560;-68
2022/08/19 09:17:38;;;;;;;19.73;16.60;;;;;;;21.02;95.53;97839.00;4937017;29;20295;-67
2022/08/19 09:20:14;;;;;;;17.13;14.77;;;;;;;21.05;95.80;97839.47;4933851;29;20307;-67
2022/08/19 09:22:43;;;;;;;18.27;15.37;;;;;;;21.10;93.69;97842.44;4938637;29;20228;-67
2022/08/19 09:25:14;;;;;;;18.47;15.77;;;;;;;21.11;93.06;97846.81;4938398;29;20274;-66
2022/08/19 09:27:42;;;;;;;17.43;15.43;;;;;;;21.19;93.04;97846.75;4938563;29;20239;-66
2022/08/19 09:30:14;;;;;;;17.43;15.63;;;;;;;21.23;92.81;97853.44;4938490;29;20232;-66
2022/08/19 09:32:42;;;;;;;18.93;15.90;;;;;;;21.24;91.52;97849.75;4938362;29;20228;-67
2022/08/19 09:35:09;;;;;;;16.40;14.43;;;;;;;21.26;91.76;97853.06;4925211;29;20235;-67
2022/08/19 09:37:36;;;;;;;17.00;14.47;;;;;;;21.30;91.98;97846.34;4938349;29;20228;-67
2022/08/19 09:40:04;;;;;;;17.40;14.97;;;;;;;21.34;93.07;97846.81;4938199;29;20228;-67
2022/08/19 09:42:32;;;;;;;17.47;15.43;;;;;;;21.36;91.71;97848.31;4938215;29;20243;-66
2022/08/19 09:44:58;;;;;;;15.73;14.07;;;;;;;21.46;91.24;97843.50;4924335;29;20232;-66
2022/08/19 09:47:25;;;;;;;14.73;13.20;;;;;;;21.48;91.70;97852.25;4938103;29;20236;-66
2022/08/19 09:49:52;;;;;;;18.03;13.83;;;;;;;21.52;90.34;97845.47;4938171;29;20649;-65
2022/08/19 09:52:19;;;;;;;16.53;14.73;;;;;;;21.51;89.85;97851.88;4938044;29;20263;-66
2022/08/19 09:54:46;;;;;;;16.93;13.70;;;;;;;21.55;90.32;97852.34;4937859;29;20227;-67
2022/08/19 09:57:12;;;;;;;16.33;13.77;;;;;;;21.58;89.76;97852.81;4938329;29;20596;-66
2022/08/19 09:59:41;;;;;;;15.90;13.90;;;;;;;21.58;89.33;97852.81;4938108;29;20286;-66
2022/08/19 10:02:09;;;;;;;14.90;13.30;;;;;;;21.54;90.24;97867.66;4938183;29;20630;-66
2022/08/19 10:07:16;;;;;;;15.87;14.27;;;;;;;21.55;89.46;97853.19;4916095;29;20231;-65
2022/08/19 10:09:43;;;;;;;16.20;13.43;;;;;;;21.60;88.79;97856.19;4935982;29;20278;-67
2022/08/19 10:12:10;;;;;;;14.93;13.37;;;;;;;21.61;88.87;97844.41;4937949;29;20276;-65
2022/08/19 10:14:37;;;;;;;15.23;12.83;;;;;;;21.68;88.69;97845.38;4937889;29;20319;-65
2022/08/19 10:17:05;;;;;;;17.37;13.77;;;;;;;21.71;89.13;97847.69;4938186;29;20227;-65
2022/08/19 10:19:35;;;;;;;14.07;12.57;;;;;;;21.79;88.66;97846.78;4937910;29;20228;-66
2022/08/19 10:22:04;;;;;;;15.07;13.17;;;;;;;21.90;87.73;97846.34;4936995;29;20234;-65
2022/08/19 10:24:31;;;;;;;15.30;13.37;;;;;;;21.91;87.33;97835.41;4936474;29;20290;-65
2022/08/19 10:26:58;;;;;;;14.10;12.60;;;;;;;21.95;86.46;97834.00;4937887;29;20633;-65
2022/08/19 10:29:24;;;;;;;15.60;12.10;;;;;;;21.94;87.32;97837.72;4937796;29;20239;-65
2022/08/19 10:31:51;;;;;;;14.47;12.83;;;;;;;22.03;85.97;97839.31;4935473;29;20335;-65
2022/08/19 10:34:19;;;;;;;13.23;11.47;;;;;;;22.00;86.83;97836.97;4937731;29;20224;-65
2022/08/19 10:36:46;;;;;;;14.03;11.70;;;;;;;22.06;86.32;97832.72;4936080;29;20236;-66
2022/08/19 10:39:13;;;;;;;14.83;12.73;;;;;;;22.06;86.66;97832.72;4937288;29;20243;-65
2022/08/19 10:41:43;;;;;;;13.53;10.73;;;;;;;22.05;85.66;97825.66;4935138;29;20263;-65
2022/08/19 10:44:12;;;;;;;13.23;11.03;;;;;;;21.93;85.35;97819.06;4937649;29;20247;-65
2022/08/19 10:46:42;;;;;;;12.03;10.70;;;;;;;21.94;85.84;97821.56;4937437;29;20358;-65
2022/08/19 10:49:11;;;;;;;11.60;10.23;;;;;;;21.99;85.34;97829.94;4932693;29;20257;-63
2022/08/19 10:56:50;;;;;;;10.47;9.37;;;;;;;22.09;83.12;97830.50;4934569;29;20249;-66
2022/08/19 10:57:12;;;;;;;11.97;8.90;;;;;;;22.21;82.40;97829.03;4933929;29;20524;-66
2022/08/19 10:59:39;;;;;;;11.63;8.87;;;;;;;22.39;80.85;97837.56;4928382;29;20237;-66
2022/08/19 11:02:09;;;;;;;10.27;8.33;;;;;;;22.54;79.87;97841.09;4928621;29;20245;-66
2022/08/19 11:04:36;;;;;;;8.70;7.80;;;;;;;22.71;79.10;97826.41;4927612;29;20254;-65
2022/08/19 11:07:06;;;;;;;8.63;7.83;;;;;;;22.90;77.88;97824.94;4929679;29;20302;-66
2022/08/19 11:09:39;;;;;;;9.10;8.17;;;;;;;23.02;75.54;97820.72;4940149;29;20362;-66
2022/08/19 11:12:07;;;;;;;8.10;7.30;;;;;;;23.26;75.60;97832.03;4938201;29;20618;-67
2022/08/19 11:14:34;;;;;;;8.50;7.77;;;;;;;23.44;74.23;97821.63;4934167;29;20292;-65
2022/08/19 11:17:02;;;;;;;10.90;8.43;;;;;;;23.54;74.11;97830.19;4937420;29;20646;-66
2022/08/19 11:19:29;;;;;;;8.87;7.97;;;;;;;23.58;73.31;97830.69;4941049;29;20235;-67
2022/08/19 11:21:56;;;;;;;9.00;8.10;;;;;;;23.60;72.58;97834.00;4936128;29;20271;-66
2022/08/19 11:24:27;;;;;;;9.37;8.47;;;;;;;23.59;72.71;97825.06;4932055;29;20285;-66
2022/08/19 11:26:58;;;;;;;8.70;7.90;;;;;;;23.62;73.37;97822.00;4931211;29;20543;-66
2022/08/19 11:29:27;;;;;;;8.77;7.97;;;;;;;23.76;71.99;97828.31;4934143;29;20528;-70
2022/08/19 11:31:55;;;;;;;8.60;7.80;;;;;;;23.72;72.33;97827.88;4933806;29;20232;-70
2022/08/19 11:34:25;;;;;;;9.23;8.33;;;;;;;23.70;71.98;97829.94;4940134;29;20239;-71
2022/08/19 11:36:52;;;;;;;8.73;7.83;;;;;;;23.56;72.90;97828.16;4931914;29;20539;-70
2022/08/19 11:39:20;;;;;;;8.57;7.67;;;;;;;23.51;72.58;97830.59;4935047;29;20267;-70